Time;durP1;ratioP1;P1;durP2;ratioP2;P2;SDS_P1;SDS_P2;PMS_P1;PMS_P2;Temp;Humidity;BMP_temperature;BMP_pressure;BME280_temperature;BME280_humidity;BME280_pressure;Samples;Min_cycle;Max_cycle;Signal;HPM_P1;HPM_P2
2020/12/03 00:00:49;;;;;;;52.92;23.35;;;5.90;93.40;;;;;;5054315;28;20036;-55
2020/12/03 00:03:44;;;;;;;50.13;23.67;;;6.00;93.40;;;;;;5042997;28;20041;-55
2020/12/03 00:06:12;;;;;;;53.35;23.58;;;6.00;93.20;;;;;;5053750;28;20047;-55
2020/12/03 00:08:40;;;;;;;52.28;23.38;;;6.00;93.20;;;;;;5052974;28;20053;-56
2020/12/03 00:11:06;;;;;;;50.38;23.08;;;6.00;93.10;;;;;;5063956;28;20045;-55
2020/12/03 00:13:35;;;;;;;52.92;23.33;;;6.00;93.10;;;;;;5047656;28;20068;-53
2020/12/03 00:16:21;;;;;;;51.45;23.08;;;6.00;93.00;;;;;;5043350;28;20044;-51
2020/12/03 00:19:08;;;;;;;48.97;23.70;;;6.10;92.90;;;;;;5039905;28;20098;-52
2020/12/03 00:21:59;;;;;;;54.30;22.25;;;6.10;92.80;;;;;;5055108;28;20041;-53
2020/12/03 00:24:30;;;;;;;50.20;22.00;;;6.10;92.80;;;;;;5058119;28;20044;-54
2020/12/03 00:26:56;;;;;;;46.30;21.30;;;6.10;92.80;;;;;;5064206;28;20040;-51
2020/12/03 00:29:41;;;;;;;47.85;21.83;;;6.00;92.90;;;;;;5048834;28;20052;-53
2020/12/03 00:32:09;;;;;;;49.92;21.50;;;6.10;92.90;;;;;;5058872;28;20044;-52
2020/12/03 00:34:54;;;;;;;43.83;21.65;;;6.10;92.90;;;;;;5045821;28;20041;-51
2020/12/03 00:37:20;;;;;;;49.88;22.58;;;6.00;93.10;;;;;;5057981;28;20048;-51
2020/12/03 00:39:45;;;;;;;46.72;21.30;;;6.00;93.10;;;;;;5052812;28;20048;-52
2020/12/03 00:42:11;;;;;;;48.70;22.33;;;6.00;93.20;;;;;;5073497;28;20048;-51
2020/12/03 00:44:37;;;;;;;46.53;21.90;;;6.00;93.20;;;;;;5066456;28;20095;-53
2020/12/03 00:47:04;;;;;;;49.42;23.17;;;6.00;93.10;;;;;;5035165;28;20040;-54
2020/12/03 00:49:30;;;;;;;53.97;23.75;;;6.00;93.20;;;;;;5057740;28;20507;-52
2020/12/03 00:51:55;;;;;;;51.63;20.90;;;6.00;93.10;;;;;;5055280;28;20033;-52
2020/12/03 00:54:21;;;;;;;51.38;22.35;;;6.10;93.10;;;;;;5067651;28;20060;-51
2020/12/03 00:56:47;;;;;;;47.90;22.58;;;6.00;93.00;;;;;;5055644;28;20444;-51
2020/12/03 00:59:13;;;;;;;50.88;22.75;;;6.10;93.00;;;;;;5055928;28;20127;-51
2020/12/03 01:01:38;;;;;;;53.60;23.95;;;6.10;93.10;;;;;;5063757;28;20079;-52
2020/12/03 01:04:04;;;;;;;49.60;23.20;;;6.10;92.90;;;;;;5060677;28;20036;-51
2020/12/03 01:06:30;;;;;;;50.47;23.77;;;6.20;92.90;;;;;;5056454;28;20513;-53
2020/12/03 01:08:56;;;;;;;54.05;24.05;;;6.20;92.80;;;;;;5040138;28;20442;-51
2020/12/03 01:11:22;;;;;;;51.08;23.35;;;6.10;93.20;;;;;;5052868;28;20183;-53
2020/12/03 01:13:49;;;;;;;50.53;24.38;;;6.10;93.00;;;;;;5045064;28;20095;-55
2020/12/03 01:16:18;;;;;;;56.97;25.98;;;6.10;92.90;;;;;;5058248;28;20076;-55
2020/12/03 01:19:04;;;;;;;54.53;25.70;;;6.10;92.90;;;;;;5048468;28;20041;-54
2020/12/03 01:21:30;;;;;;;57.78;25.60;;;6.20;92.90;;;;;;5057853;28;20044;-54
2020/12/03 01:24:15;;;;;;;56.38;25.77;;;6.20;92.80;;;;;;5035954;28;20048;-53
2020/12/03 01:26:41;;;;;;;60.45;26.48;;;6.10;93.00;;;;;;5063588;28;20032;-54
2020/12/03 01:29:07;;;;;;;59.90;26.98;;;6.10;93.10;;;;;;5049020;28;20028;-54
2020/12/03 01:31:32;;;;;;;63.15;27.38;;;6.10;93.00;;;;;;5066850;28;20500;-54
2020/12/03 01:33:59;;;;;;;68.18;27.25;;;6.10;93.00;;;;;;5065871;28;20037;-53
2020/12/03 01:36:25;;;;;;;71.50;28.48;;;6.20;93.20;;;;;;5051188;28;20056;-56
2020/12/03 01:39:11;;;;;;;66.75;28.13;;;6.10;93.40;;;;;;5048971;28;20052;-53
2020/12/03 01:41:36;;;;;;;79.38;29.40;;;6.10;93.40;;;;;;5051367;28;20501;-52
2020/12/03 01:44:40;;;;;;;69.85;28.58;;;6.10;93.40;;;;;;5030563;28;20044;-53
2020/12/03 01:47:31;;;;;;;82.82;30.90;;;6.10;93.40;;;;;;5036667;28;20064;-52
2020/12/03 01:49:58;;;;;;;75.18;29.92;;;6.10;93.40;;;;;;5056981;28;20040;-55
2020/12/03 01:52:44;;;;;;;77.85;28.98;;;6.00;93.60;;;;;;5036419;28;20045;-57
2020/12/03 01:55:09;;;;;;;85.43;31.48;;;6.10;93.60;;;;;;5057365;28;20094;-54
2020/12/03 01:58:01;;;;;;;85.82;31.05;;;6.00;93.60;;;;;;5041927;28;20083;-53
2020/12/03 02:00:28;;;;;;;78.20;30.25;;;6.10;93.70;;;;;;5063936;28;20041;-54
2020/12/03 02:02:55;;;;;;;84.53;31.52;;;6.10;93.70;;;;;;5056706;28;20079;-54
2020/12/03 02:05:27;;;;;;;84.97;32.33;;;6.10;93.60;;;;;;5069074;28;20048;-54
2020/12/03 02:07:53;;;;;;;84.88;31.98;;;6.10;93.50;;;;;;5059907;28;20045;-54
2020/12/03 02:10:22;;;;;;;84.20;31.77;;;6.10;93.50;;;;;;5057430;28;20052;-52
2020/12/03 02:13:08;;;;;;;79.28;31.20;;;6.10;93.50;;;;;;5040405;28;20404;-52
2020/12/03 02:15:54;;;;;;;81.82;31.65;;;6.10;93.40;;;;;;5044857;28;20094;-55
2020/12/03 02:18:43;;;;;;;77.15;29.88;;;6.10;93.40;;;;;;5038081;28;20044;-54
2020/12/03 02:21:09;;;;;;;80.55;30.95;;;6.20;93.50;;;;;;5061074;28;20500;-52
2020/12/03 02:23:34;;;;;;;80.38;31.83;;;6.20;93.30;;;;;;5053531;28;20072;-53
2020/12/03 02:26:00;;;;;;;81.30;32.92;;;6.10;93.30;;;;;;5060343;28;20055;-53
2020/12/03 02:28:26;;;;;;;94.50;33.03;;;6.10;93.50;;;;;;5051239;28;20044;-55
2020/12/03 02:30:52;;;;;;;83.25;32.75;;;6.10;93.60;;;;;;5060526;28;20503;-52
2020/12/03 02:33:19;;;;;;;81.20;32.58;;;6.10;93.80;;;;;;5029583;28;20472;-55
2020/12/03 02:35:44;;;;;;;85.43;34.05;;;6.10;93.50;;;;;;5059119;28;20131;-54
2020/12/03 02:38:10;;;;;;;78.45;31.98;;;6.10;93.50;;;;;;5057686;28;20178;-52
2020/12/03 02:40:35;;;;;;;73.80;32.13;;;6.10;93.50;;;;;;5056653;28;20047;-53
2020/12/03 02:43:01;;;;;;;73.55;31.88;;;6.10;93.60;;;;;;5066561;28;20040;-54
2020/12/03 02:45:26;;;;;;;83.18;30.52;;;6.10;93.50;;;;;;5056411;28;20049;-54
2020/12/03 02:47:52;;;;;;;78.32;28.92;;;6.10;93.60;;;;;;5052262;28;20037;-54
2020/12/03 02:50:18;;;;;;;75.25;29.83;;;6.10;93.50;;;;;;5062706;28;20055;-54
2020/12/03 02:52:44;;;;;;;86.05;32.45;;;6.20;93.50;;;;;;5053425;28;20044;-53
2020/12/03 02:55:09;;;;;;;80.32;31.15;;;6.20;93.40;;;;;;5057130;28;20036;-55
2020/12/03 02:57:35;;;;;;;82.78;32.60;;;6.10;93.40;;;;;;5056030;28;20051;-55
2020/12/03 03:00:00;;;;;;;75.60;30.65;;;6.10;93.60;;;;;;5052502;28;20464;-50
2020/12/03 03:02:26;;;;;;;75.35;31.60;;;6.10;93.60;;;;;;5060440;28;20327;-50
2020/12/03 03:04:52;;;;;;;73.28;31.60;;;6.10;93.70;;;;;;5058943;28;20470;-50
2020/12/03 03:07:37;;;;;;;79.32;31.27;;;6.20;93.50;;;;;;5047835;28;20058;-52
2020/12/03 03:10:03;;;;;;;74.15;30.90;;;6.20;93.50;;;;;;5054370;28;20033;-51
2020/12/03 03:12:29;;;;;;;77.35;31.70;;;6.20;93.40;;;;;;5055472;28;20064;-50
2020/12/03 03:14:54;;;;;;;77.68;32.33;;;6.20;93.40;;;;;;5052114;28;20033;-54
2020/12/03 03:17:21;;;;;;;81.13;31.75;;;6.20;93.40;;;;;;5065812;28;20127;-51
2020/12/03 03:19:47;;;;;;;85.18;32.00;;;6.20;93.40;;;;;;5056130;28;20044;-51
2020/12/03 03:22:12;;;;;;;73.80;30.83;;;6.20;93.40;;;;;;5051851;28;20408;-51
2020/12/03 03:24:38;;;;;;;75.93;30.60;;;6.20;93.40;;;;;;5051640;28;20045;-51
2020/12/03 03:27:03;;;;;;;79.47;31.00;;;6.30;93.40;;;;;;5055242;28;20167;-53
2020/12/03 03:29:49;;;;;;;80.13;31.00;;;6.30;93.30;;;;;;5040294;28;20481;-51
2020/12/03 03:32:35;;;;;;;73.97;31.88;;;6.20;93.20;;;;;;5043097;28;20149;-50
2020/12/03 03:35:21;;;;;;;71.30;30.55;;;6.20;93.30;;;;;;5033995;28;20049;-53
2020/12/03 03:37:47;;;;;;;77.03;31.63;;;6.20;93.30;;;;;;5049548;28;20183;-51
2020/12/03 03:40:32;;;;;;;68.65;29.75;;;6.30;93.20;;;;;;5054775;28;20077;-50
2020/12/03 03:43:18;;;;;;;73.80;30.90;;;6.20;93.20;;;;;;5037549;28;20041;-53
2020/12/03 03:46:04;;;;;;;71.82;30.30;;;6.30;93.00;;;;;;5040607;28;20037;-53
2020/12/03 03:48:30;;;;;;;64.28;28.65;;;6.30;92.80;;;;;;5051131;28;20037;-51
2020/12/03 03:50:56;;;;;;;75.65;30.40;;;6.30;92.90;;;;;;5069039;28;20068;-54
2020/12/03 03:53:21;;;;;;;68.90;29.83;;;6.30;92.80;;;;;;5057467;28;20449;-51
2020/12/03 03:55:47;;;;;;;72.90;28.55;;;6.30;92.90;;;;;;5067908;28;20103;-51
2020/12/03 03:58:13;;;;;;;73.13;29.60;;;6.20;93.00;;;;;;5069848;28;20043;-50
2020/12/03 04:00:44;;;;;;;69.35;29.73;;;6.30;92.90;;;;;;5065563;28;20051;-53
2020/12/03 04:03:13;;;;;;;67.65;29.38;;;6.30;93.00;;;;;;5054897;28;20120;-50
2020/12/03 04:05:40;;;;;;;75.65;29.75;;;6.30;92.80;;;;;;5055477;28;20422;-53
2020/12/03 04:08:27;;;;;;;70.57;29.80;;;6.30;92.80;;;;;;5051332;28;20413;-50
2020/12/03 04:10:53;;;;;;;66.75;29.48;;;6.30;92.90;;;;;;5056944;28;20120;-54
2020/12/03 04:13:22;;;;;;;67.25;28.90;;;6.30;93.00;;;;;;5057678;28;20032;-50
2020/12/03 04:16:08;;;;;;;69.55;30.63;;;6.30;92.90;;;;;;5053968;28;20051;-50
2020/12/03 04:18:54;;;;;;;68.38;29.85;;;6.20;92.90;;;;;;5046436;28;20136;-51
2020/12/03 04:21:20;;;;;;;66.82;28.77;;;6.30;92.70;;;;;;5036488;28;20059;-50
2020/12/03 04:23:46;;;;;;;61.00;28.88;;;6.30;92.60;;;;;;5046699;28;20111;-50
2020/12/03 04:26:12;;;;;;;64.40;29.42;;;6.30;92.70;;;;;;5072143;28;20083;-53
2020/12/03 04:28:38;;;;;;;69.45;29.75;;;6.30;92.70;;;;;;5058065;28;20068;-51
2020/12/03 04:31:04;;;;;;;70.82;29.85;;;6.30;92.60;;;;;;5071040;28;20029;-50
2020/12/03 04:33:30;;;;;;;64.43;29.67;;;6.30;92.50;;;;;;5066584;28;20052;-50
2020/12/03 04:36:16;;;;;;;63.50;29.45;;;6.30;92.60;;;;;;5034657;28;20047;-51
2020/12/03 04:38:42;;;;;;;62.10;29.92;;;6.30;92.60;;;;;;5063487;28;20556;-52
2020/12/03 04:41:09;;;;;;;61.42;28.92;;;6.30;92.60;;;;;;5072431;28;20120;-51
2020/12/03 04:43:42;;;;;;;68.22;29.50;;;6.30;92.70;;;;;;5061355;28;20047;-54
2020/12/03 04:46:37;;;;;;;59.90;29.00;;;6.30;92.70;;;;;;5066625;28;20043;-55
2020/12/03 04:49:52;;;;;;;67.28;30.88;;;6.30;92.40;;;;;;5051265;28;20591;-53
2020/12/03 04:53:00;;;;;;;69.43;30.17;;;6.30;92.60;;;;;;5058546;28;20501;-54
2020/12/03 04:55:50;;;;;;;62.75;29.52;;;6.30;92.60;;;;;;5051844;28;20132;-55
2020/12/03 04:58:54;;;;;;;64.20;29.77;;;6.30;92.60;;;;;;5052041;28;20047;-55
2020/12/03 05:02:04;;;;;;;63.70;30.40;;;6.20;92.70;;;;;;5065300;28;20447;-55
2020/12/03 05:04:52;;;;;;;65.90;30.80;;;6.30;92.80;;;;;;5042882;28;20113;-56
2020/12/03 05:07:21;;;;;;;66.95;30.95;;;6.20;92.90;;;;;;5072019;28;20053;-55
2020/12/03 05:10:00;;;;;;;63.45;30.85;;;6.20;93.00;;;;;;5062953;28;20041;-55
2020/12/03 05:12:37;;;;;;;68.50;31.00;;;6.20;92.90;;;;;;5051551;28;20037;-55
2020/12/03 05:15:25;;;;;;;59.35;29.55;;;6.20;93.00;;;;;;5058693;28;20037;-54
2020/12/03 05:18:00;;;;;;;69.03;32.10;;;6.20;92.90;;;;;;5037335;28;20076;-55
2020/12/03 05:20:53;;;;;;;65.43;32.08;;;6.10;92.90;;;;;;5032818;28;20432;-52
2020/12/03 05:23:24;;;;;;;61.75;31.42;;;6.20;92.80;;;;;;5066574;28;20071;-54
2020/12/03 05:25:52;;;;;;;67.35;30.95;;;6.20;92.90;;;;;;5061393;28;20048;-54
2020/12/03 05:28:20;;;;;;;62.15;30.60;;;6.10;92.80;;;;;;5068477;28;20041;-53
2020/12/03 05:30:46;;;;;;;61.50;30.92;;;6.20;92.80;;;;;;5056817;28;20051;-55
2020/12/03 05:33:32;;;;;;;67.43;31.58;;;6.10;92.90;;;;;;5039402;28;20179;-55
2020/12/03 05:36:24;;;;;;;68.22;32.78;;;6.10;93.00;;;;;;5041211;28;20121;-54
2020/12/03 05:38:49;;;;;;;62.35;30.75;;;6.00;93.10;;;;;;5057662;28;20048;-55
2020/12/03 05:41:17;;;;;;;63.78;30.45;;;6.10;93.00;;;;;;5052157;28;20047;-52
2020/12/03 05:43:43;;;;;;;66.60;31.70;;;6.10;92.90;;;;;;5033380;28;20047;-55
2020/12/03 05:46:10;;;;;;;64.68;32.13;;;6.10;92.90;;;;;;5052454;28;20047;-56
2020/12/03 05:48:59;;;;;;;70.13;32.50;;;6.10;93.00;;;;;;5050562;28;20094;-56
2020/12/03 05:51:30;;;;;;;62.80;30.65;;;6.10;93.10;;;;;;5065187;28;20051;-56
2020/12/03 05:54:03;;;;;;;63.38;31.92;;;6.10;93.10;;;;;;5051308;28;20053;-57
2020/12/03 05:56:31;;;;;;;67.57;31.90;;;6.10;93.10;;;;;;5059456;28;20045;-57
2020/12/03 05:59:18;;;;;;;66.63;32.42;;;6.10;93.20;;;;;;5051336;28;20045;-55
2020/12/03 06:02:05;;;;;;;61.78;30.83;;;6.10;93.20;;;;;;5023704;28;20068;-53
2020/12/03 06:04:51;;;;;;;84.70;31.30;;;6.10;93.10;;;;;;5065441;28;20048;-54
2020/12/03 06:07:57;;;;;;;66.35;33.03;;;6.10;93.10;;;;;;5060505;28;20171;-54
2020/12/03 06:11:34;;;;;;;61.22;29.55;;;6.10;93.20;;;;;;5042384;28;20049;-54
2020/12/03 06:14:14;;;;;;;61.08;29.60;;;6.10;93.20;;;;;;5016460;28;20049;-55
2020/12/03 06:16:49;;;;;;;69.05;32.85;;;6.00;93.20;;;;;;5043321;28;20508;-54
2020/12/03 06:19:46;;;;;;;59.58;31.75;;;6.00;93.30;;;;;;5041411;28;20041;-53
2020/12/03 06:22:25;;;;;;;63.80;31.00;;;6.10;93.10;;;;;;5058092;28;20051;-52
2020/12/03 06:25:06;;;;;;;57.55;30.73;;;6.10;93.20;;;;;;5044966;28;20474;-50
2020/12/03 06:28:13;;;;;;;61.75;29.23;;;6.10;93.00;;;;;;5052089;28;20134;-55
2020/12/03 06:30:46;;;;;;;58.88;29.40;;;6.10;92.90;;;;;;4987890;28;20630;-52
2020/12/03 06:33:14;;;;;;;59.58;30.30;;;6.10;93.20;;;;;;5064000;28;20037;-53
2020/12/03 06:36:18;;;;;;;61.25;30.55;;;6.10;93.00;;;;;;5052173;28;20051;-54
2020/12/03 06:39:06;;;;;;;60.92;29.15;;;6.00;93.30;;;;;;5050471;28;20044;-54
2020/12/03 06:41:58;;;;;;;58.70;28.92;;;5.90;93.40;;;;;;5035905;28;20045;-53
2020/12/03 06:44:53;;;;;;;63.80;28.42;;;5.90;93.40;;;;;;5037526;28;20052;-54
2020/12/03 06:48:15;;;;;;;60.33;28.70;;;6.00;93.40;;;;;;5039023;28;20142;-52
2020/12/03 06:51:15;;;;;;;56.35;28.90;;;5.90;93.50;;;;;;5049596;28;20045;-52
2020/12/03 06:53:41;;;;;;;65.10;30.80;;;6.00;93.40;;;;;;5057689;28;20048;-53
2020/12/03 06:56:48;;;;;;;62.42;30.25;;;6.00;93.40;;;;;;5043070;28;20140;-51
2020/12/03 06:59:39;;;;;;;64.25;29.65;;;6.00;93.40;;;;;;5049826;28;20041;-52
2020/12/03 07:02:33;;;;;;;61.47;28.73;;;6.00;93.40;;;;;;5020397;28;20059;-52
2020/12/03 07:05:29;;;;;;;59.63;30.65;;;6.10;93.30;;;;;;5059142;28;20098;-54
2020/12/03 07:09:01;;;;;;;62.88;28.52;;;6.10;93.30;;;;;;5029284;28;20127;-54
2020/12/03 07:11:55;;;;;;;64.20;29.35;;;6.00;93.40;;;;;;5052506;28;20417;-52
2020/12/03 07:14:43;;;;;;;59.03;27.42;;;6.00;93.30;;;;;;5062841;28;20044;-52
2020/12/03 07:17:19;;;;;;;56.70;27.50;;;6.00;93.40;;;;;;5049919;28;20036;-52
2020/12/03 07:19:44;;;;;;;56.78;28.88;;;6.00;93.40;;;;;;5039637;28;20098;-53
2020/12/03 07:22:39;;;;;;;59.58;27.55;;;6.00;93.30;;;;;;5047526;28;20044;-53
2020/12/03 07:25:06;;;;;;;62.65;28.77;;;6.00;93.30;;;;;;5048638;28;20045;-49
2020/12/03 07:28:16;;;;;;;71.53;29.48;;;6.00;93.40;;;;;;5037395;28;20049;-52
2020/12/03 07:31:12;;;;;;;66.43;27.52;;;6.00;93.30;;;;;;5048913;28;20037;-56
2020/12/03 07:34:24;;;;;;;65.82;29.02;;;6.00;93.30;;;;;;5039577;28;20048;-54
2020/12/03 07:37:46;;;;;;;65.45;27.88;;;6.00;93.40;;;;;;5038876;28;20060;-53
2020/12/03 07:40:18;;;;;;;67.27;29.60;;;6.00;93.40;;;;;;5055510;28;20044;-54
2020/12/03 07:43:21;;;;;;;65.38;28.80;;;5.90;93.80;;;;;;5049931;28;20140;-53
2020/12/03 07:45:49;;;;;;;77.93;31.02;;;5.90;93.70;;;;;;5060077;28;20110;-53
2020/12/03 07:48:45;;;;;;;62.55;29.52;;;5.90;93.70;;;;;;5048495;28;20072;-53
2020/12/03 07:51:32;;;;;;;70.88;29.13;;;6.00;93.60;;;;;;5043303;28;20135;-52
2020/12/03 07:54:18;;;;;;;69.55;30.20;;;5.90;93.70;;;;;;5046099;28;20563;-54
2020/12/03 07:56:46;;;;;;;70.72;30.42;;;6.00;93.60;;;;;;5054452;28;20041;-52
2020/12/03 07:59:24;;;;;;;69.35;28.25;;;6.00;93.60;;;;;;5053207;28;20037;-56
2020/12/03 08:01:51;;;;;;;67.00;30.02;;;6.00;93.70;;;;;;5058312;28;20033;-49
2020/12/03 08:04:27;;;;;;;71.82;29.52;;;6.00;93.80;;;;;;5061679;28;20037;-51
2020/12/03 08:07:07;;;;;;;73.05;32.15;;;6.00;93.80;;;;;;5061389;28;20032;-50
2020/12/03 08:09:40;;;;;;;69.65;31.00;;;6.00;93.80;;;;;;5069518;28;20088;-52
2020/12/03 08:12:15;;;;;;;72.40;30.52;;;6.00;93.80;;;;;;5062489;28;20400;-52
2020/12/03 08:14:47;;;;;;;72.68;29.38;;;6.00;93.70;;;;;;5053402;28;20056;-49
2020/12/03 08:17:36;;;;;;;70.03;30.48;;;6.10;93.80;;;;;;5037497;28;20041;-52
2020/12/03 08:20:04;;;;;;;71.82;30.10;;;6.20;93.60;;;;;;5059019;28;20037;-50
2020/12/03 08:22:39;;;;;;;60.83;28.98;;;6.20;93.40;;;;;;5056869;28;20049;-50
2020/12/03 08:25:30;;;;;;;68.65;30.95;;;6.20;93.40;;;;;;5037833;28;20405;-50
2020/12/03 08:28:01;;;;;;;66.68;29.38;;;6.20;93.30;;;;;;5061854;28;20040;-50
2020/12/03 08:30:41;;;;;;;73.78;32.28;;;6.20;93.50;;;;;;5055636;28;20124;-51
2020/12/03 08:33:14;;;;;;;73.57;30.60;;;6.20;93.50;;;;;;5062082;28;20121;-49
2020/12/03 08:35:47;;;;;;;66.93;29.52;;;6.30;93.40;;;;;;5060699;28;20045;-53
2020/12/03 08:38:12;;;;;;;;;;;6.30;93.40;;;;;;5072727;28;20068;-53
2020/12/03 08:40:39;;;;;;;66.50;29.00;;;6.30;93.40;;;;;;5057977;28;20423;-52
2020/12/03 08:43:09;;;;;;;64.32;29.92;;;6.20;93.50;;;;;;5064487;28;20032;-53
2020/12/03 08:45:47;;;;;;;57.35;29.35;;;6.30;93.50;;;;;;5064393;28;20044;-53
2020/12/03 08:48:37;;;;;;;60.15;28.10;;;6.30;93.40;;;;;;5048569;28;20072;-56
2020/12/03 08:51:23;;;;;;;66.03;28.67;;;6.30;93.40;;;;;;5037090;28;20045;-54
2020/12/03 08:53:49;;;;;;;55.95;26.45;;;6.30;93.20;;;;;;5062527;28;20048;-54
2020/12/03 08:56:18;;;;;;;51.97;24.83;;;6.30;93.40;;;;;;5055323;28;20032;-54
2020/12/03 08:59:17;;;;;;;54.22;25.63;;;6.30;93.50;;;;;;5037221;28;20072;-54
2020/12/03 09:01:51;;;;;;;48.53;24.83;;;6.30;93.40;;;;;;5068043;28;20086;-54
2020/12/03 09:04:24;;;;;;;49.13;25.60;;;6.30;93.40;;;;;;5057328;28;20041;-54
2020/12/03 09:06:50;;;;;;;;;;;6.30;93.40;;;;;;5056314;28;20489;-53
2020/12/03 09:09:37;;;;;;;46.22;23.58;;;6.30;93.40;;;;;;5043417;28;19924;-54
2020/12/03 09:12:06;;;;;;;39.22;21.13;;;6.40;93.40;;;;;;5061053;28;20036;-54
2020/12/03 09:14:55;;;;;;;35.83;18.77;;;6.30;93.30;;;;;;5038040;28;20044;-54
2020/12/03 09:17:23;;;;;;;48.85;23.02;;;6.40;93.20;;;;;;5055521;28;20049;-54
2020/12/03 09:19:50;;;;;;;42.65;22.92;;;6.40;93.10;;;;;;5045790;28;20048;-55
2020/12/03 09:22:17;;;;;;;37.30;19.05;;;6.40;93.30;;;;;;5057244;28;20102;-54
2020/12/03 09:25:05;;;;;;;32.60;18.67;;;6.40;93.40;;;;;;5052256;28;20044;-55
2020/12/03 09:27:52;;;;;;;35.55;18.88;;;6.50;93.20;;;;;;5030648;28;20041;-55
2020/12/03 09:30:23;;;;;;;37.28;17.73;;;6.40;93.10;;;;;;5059969;28;20036;-55
2020/12/03 09:32:53;;;;;;;32.67;19.05;;;6.40;93.20;;;;;;5060805;28;20107;-55
2020/12/03 09:35:20;;;;;;;29.13;17.73;;;6.40;93.20;;;;;;5058300;28;20059;-55
2020/12/03 09:37:46;;;;;;;30.38;16.70;;;6.40;93.40;;;;;;5056537;28;20040;-55
2020/12/03 09:40:12;;;;;;;30.27;16.52;;;6.40;93.30;;;;;;5062830;28;20489;-56
2020/12/03 09:42:47;;;;;;;27.98;16.27;;;6.40;93.30;;;;;;5056676;28;20611;-55
2020/12/03 09:45:40;;;;;;;33.50;16.08;;;6.40;93.20;;;;;;5054844;28;20130;-55
2020/12/03 09:48:27;;;;;;;27.83;15.90;;;6.40;93.20;;;;;;5038587;28;20417;-54
2020/12/03 09:50:52;;;;;;;27.55;15.15;;;6.40;93.20;;;;;;5051797;28;20390;-55
2020/12/03 09:53:20;;;;;;;28.00;15.15;;;6.50;93.00;;;;;;5041583;28;20054;-55
2020/12/03 09:55:47;;;;;;;25.48;13.73;;;6.50;93.10;;;;;;5054245;28;20046;-54
2020/12/03 09:58:20;;;;;;;29.38;16.50;;;6.50;93.00;;;;;;5053129;28;20465;-56
2020/12/03 10:00:50;;;;;;;28.85;14.60;;;6.50;92.90;;;;;;5055238;28;20060;-55
2020/12/03 10:04:22;;;;;;;31.38;14.98;;;6.40;93.00;;;;;;5043675;28;20051;-55
2020/12/03 10:06:59;;;;;;;30.70;15.10;;;6.40;93.30;;;;;;5017976;28;20614;-55
2020/12/03 10:09:44;;;;;;;31.42;15.88;;;6.50;93.30;;;;;;5040606;28;20409;-55
2020/12/03 10:12:56;;;;;;;30.45;15.05;;;6.50;93.00;;;;;;5050547;28;20048;-55
2020/12/03 10:15:44;;;;;;;31.48;16.70;;;6.50;93.10;;;;;;5039062;28;20045;-55
2020/12/03 10:18:20;;;;;;;32.30;16.15;;;6.40;93.20;;;;;;5055359;28;20047;-55
2020/12/03 10:20:50;;;;;;;30.92;16.38;;;6.50;93.30;;;;;;5050570;28;20056;-55
2020/12/03 10:23:37;;;;;;;34.83;17.73;;;6.50;93.30;;;;;;5044864;28;20126;-54
2020/12/03 10:26:21;;;;;;;29.95;16.30;;;6.40;93.40;;;;;;5058679;28;20041;-55
2020/12/03 10:28:58;;;;;;;34.30;17.42;;;6.60;93.00;;;;;;5037050;28;20083;-55
2020/12/03 10:31:30;;;;;;;33.60;16.15;;;6.60;92.80;;;;;;5055928;28;20148;-55
2020/12/03 10:33:59;;;;;;;36.50;20.30;;;6.50;93.00;;;;;;5048475;28;20036;-53
2020/12/03 10:36:51;;;;;;;34.50;18.10;;;6.50;93.20;;;;;;5044261;28;20139;-55
2020/12/03 10:39:18;;;;;;;37.00;18.38;;;6.40;93.20;;;;;;5055957;28;20037;-50
2020/12/03 10:42:09;;;;;;;37.15;19.08;;;6.50;93.10;;;;;;5040127;28;20055;-54
2020/12/03 10:45:02;;;;;;;40.35;26.20;;;6.50;93.00;;;;;;5045733;28;20075;-52
2020/12/03 10:47:57;;;;;;;41.22;25.23;;;6.50;92.80;;;;;;5053678;28;20070;-54
2020/12/03 10:51:02;;;;;;;31.20;17.98;;;6.50;92.80;;;;;;5057173;28;20037;-53
2020/12/03 10:53:50;;;;;;;34.50;17.48;;;6.50;92.60;;;;;;5041897;28;20481;-53
2020/12/03 10:56:38;;;;;;;34.05;17.38;;;6.50;92.80;;;;;;5047356;28;20041;-51
2020/12/03 10:59:20;;;;;;;29.02;15.55;;;6.50;92.60;;;;;;5040773;28;20033;-51
2020/12/03 11:02:16;;;;;;;35.03;17.10;;;6.50;92.50;;;;;;5032099;28;20115;-52
2020/12/03 11:05:06;;;;;;;28.13;16.02;;;6.50;92.50;;;;;;5053187;28;20041;-50
2020/12/03 11:07:32;;;;;;;26.27;15.27;;;6.60;92.80;;;;;;5061370;28;20420;-50
2020/12/03 11:09:58;;;;;;;28.08;15.90;;;6.60;92.30;;;;;;5060732;28;20049;-52
2020/12/03 11:12:27;;;;;;;29.67;16.02;;;6.60;92.10;;;;;;5056182;28;20045;-53
2020/12/03 11:14:52;;;;;;;30.75;17.70;;;6.60;92.30;;;;;;5056889;28;20048;-50
2020/12/03 11:17:21;;;;;;;34.60;17.48;;;6.60;92.40;;;;;;5065798;28;20045;-50
2020/12/03 11:19:49;;;;;;;35.83;20.90;;;6.60;92.40;;;;;;5054164;28;20040;-50
2020/12/03 11:22:36;;;;;;;29.98;17.60;;;6.60;92.50;;;;;;5058975;28;20033;-54
2020/12/03 11:25:04;;;;;;;29.77;18.08;;;6.60;92.50;;;;;;5062875;28;20117;-51
2020/12/03 11:27:30;;;;;;;32.38;19.65;;;6.60;92.40;;;;;;5057186;28;20044;-50
2020/12/03 11:29:57;;;;;;;25.58;14.13;;;6.60;92.20;;;;;;5060859;28;20051;-52
2020/12/03 11:32:27;;;;;;;23.30;14.60;;;6.50;92.20;;;;;;5027067;28;20129;-55
2020/12/03 11:35:25;;;;;;;27.05;17.88;;;6.50;92.40;;;;;;5033861;28;20041;-52
2020/12/03 11:38:14;;;;;;;18.23;11.35;;;6.50;92.10;;;;;;5030066;28;20102;-55
2020/12/03 11:40:44;;;;;;;24.73;13.15;;;6.50;91.80;;;;;;5053421;28;20448;-53
2020/12/03 11:43:23;;;;;;;19.88;12.32;;;6.50;91.90;;;;;;5053411;28;20032;-55
2020/12/03 11:46:09;;;;;;;18.33;11.45;;;6.50;91.90;;;;;;5035520;28;20500;-50
2020/12/03 11:48:55;;;;;;;18.77;11.45;;;6.50;91.70;;;;;;5038067;28;20040;-53
2020/12/03 11:51:37;;;;;;;18.80;11.70;;;6.50;92.00;;;;;;5050829;28;20040;-54
2020/12/03 11:54:07;;;;;;;20.83;11.93;;;6.40;91.90;;;;;;5052386;28;20032;-53
2020/12/03 11:56:34;;;;;;;19.95;11.90;;;6.40;92.20;;;;;;5047204;28;20151;-55
2020/12/03 11:59:20;;;;;;;21.27;11.52;;;6.50;92.10;;;;;;5045923;28;20045;-55
2020/12/03 12:01:56;;;;;;;20.52;12.55;;;6.40;92.30;;;;;;5046527;28;20546;-53
2020/12/03 12:04:58;;;;;;;22.55;14.48;;;6.50;92.30;;;;;;5033406;28;20040;-53
2020/12/03 12:07:41;;;;;;;26.55;16.42;;;6.50;92.20;;;;;;5051477;28;20141;-53
2020/12/03 12:12:42;;;;;;;43.03;37.40;;;6.50;92.00;;;;;;5032438;28;20044;-53
2020/12/03 12:15:08;;;;;;;21.38;14.05;;;6.50;91.90;;;;;;5048463;28;20068;-53
2020/12/03 12:17:36;;;;;;;17.77;12.15;;;6.40;92.10;;;;;;5050829;28;20463;-53
2020/12/03 12:20:22;;;;;;;20.90;12.70;;;6.40;92.20;;;;;;5034685;28;20044;-55
2020/12/03 12:22:48;;;;;;;16.92;10.60;;;6.50;91.80;;;;;;5052363;28;20356;-53
2020/12/03 12:25:13;;;;;;;16.30;10.40;;;6.50;91.30;;;;;;5047659;28;20072;-55
2020/12/03 12:27:59;;;;;;;19.23;13.20;;;6.50;91.30;;;;;;5034292;28;20051;-54
2020/12/03 12:30:25;;;;;;;22.15;14.43;;;6.40;91.60;;;;;;5055002;28;20052;-54
2020/12/03 12:32:51;;;;;;;27.40;16.98;;;6.40;91.80;;;;;;5052911;28;20435;-55
2020/12/03 12:35:36;;;;;;;15.32;9.77;;;6.30;92.00;;;;;;5035678;28;20040;-52
2020/12/03 12:38:22;;;;;;;26.20;19.63;;;6.60;92.00;;;;;;5030503;28;20571;-55
2020/12/03 12:40:48;;;;;;;18.27;12.25;;;6.20;92.10;;;;;;5046654;28;20045;-53
2020/12/03 12:43:14;;;;;;;20.52;13.82;;;6.30;92.00;;;;;;5030778;28;20041;-56
2020/12/03 12:45:40;;;;;;;27.90;22.30;;;6.20;92.00;;;;;;5052554;28;20036;-54
2020/12/03 12:48:07;;;;;;;17.48;10.38;;;6.20;92.20;;;;;;5049562;28;20045;-54
2020/12/03 12:50:53;;;;;;;23.65;13.88;;;6.10;92.10;;;;;;5041669;28;20052;-55
2020/12/03 12:53:38;;;;;;;18.17;11.60;;;6.10;92.40;;;;;;5038023;28;20052;-53
2020/12/03 12:56:24;;;;;;;16.83;10.75;;;6.10;92.40;;;;;;5037234;28;20052;-55
2020/12/03 12:58:49;;;;;;;19.98;12.07;;;6.10;92.40;;;;;;5044617;28;20037;-54
2020/12/03 13:01:35;;;;;;;18.20;11.80;;;6.00;92.60;;;;;;5039586;28;20509;-54
2020/12/03 13:04:01;;;;;;;21.42;12.80;;;6.00;92.50;;;;;;5050475;28;20738;-55
2020/12/03 13:06:26;;;;;;;26.42;15.13;;;5.90;92.60;;;;;;5035442;28;20045;-54
2020/12/03 13:08:52;;;;;;;19.92;12.80;;;5.90;92.80;;;;;;5044883;28;20106;-54
2020/12/03 13:11:18;;;;;;;22.92;13.00;;;5.90;92.80;;;;;;5042233;28;20043;-53
2020/12/03 13:14:09;;;;;;;23.88;13.43;;;5.90;92.90;;;;;;5035454;28;20486;-53
2020/12/03 13:16:36;;;;;;;22.23;12.38;;;5.90;92.70;;;;;;5046855;28;20033;-53
2020/12/03 13:19:03;;;;;;;24.80;13.50;;;6.00;92.50;;;;;;5047185;28;20041;-53
2020/12/03 13:21:30;;;;;;;25.77;14.35;;;6.00;92.60;;;;;;5046201;28;20090;-53
2020/12/03 13:23:56;;;;;;;25.08;13.40;;;6.00;92.60;;;;;;5055503;28;20041;-51
2020/12/03 13:26:23;;;;;;;25.20;14.10;;;5.90;92.70;;;;;;5048806;28;20118;-54
2020/12/03 13:29:08;;;;;;;27.33;15.52;;;6.00;92.60;;;;;;5032744;28;20515;-55
2020/12/03 13:31:34;;;;;;;26.27;15.13;;;6.00;92.70;;;;;;5047651;28;20052;-52